sensor_id;sensor_type;location;lat;lon;timestamp;pressure;altitude;pressure_sealevel;temperature;humidity
21594;BME280;10959;51.328;7.322;2023-02-14T00:00:18;100597.50;;;9.14;66.36
21594;BME280;10959;51.328;7.322;2023-02-14T00:02:46;100594.94;;;9.06;66.47
21594;BME280;10959;51.328;7.322;2023-02-14T00:05:12;100591.38;;;9.04;66.66
21594;BME280;10959;51.328;7.322;2023-02-14T00:07:39;100596.81;;;9.01;66.21
21594;BME280;10959;51.328;7.322;2023-02-14T00:10:07;100594.22;;;8.95;66.31
21594;BME280;10959;51.328;7.322;2023-02-14T00:12:35;100596.97;;;8.89;66.62
21594;BME280;10959;51.328;7.322;2023-02-14T00:15:02;100591.66;;;8.86;66.83
21594;BME280;10959;51.328;7.322;2023-02-14T00:17:46;100597.06;;;8.82;66.64
21594;BME280;10959;51.328;7.322;2023-02-14T00:20:13;100595.28;;;8.81;66.77
21594;BME280;10959;51.328;7.322;2023-02-14T00:22:40;100594.41;;;8.81;66.67
21594;BME280;10959;51.328;7.322;2023-02-14T00:25:06;100599.81;;;8.78;66.52
21594;BME280;10959;51.328;7.322;2023-02-14T00:27:34;100601.63;;;8.74;67.09
21594;BME280;10959;51.328;7.322;2023-02-14T00:30:02;100596.38;;;8.67;66.65
21594;BME280;10959;51.328;7.322;2023-02-14T00:32:29;100590.16;;;8.63;66.86
21594;BME280;10959;51.328;7.322;2023-02-14T00:34:55;100594.63;;;8.62;67.47
21594;BME280;10959;51.328;7.322;2023-02-14T00:37:22;100595.59;;;8.58;66.96
21594;BME280;10959;51.328;7.322;2023-02-14T00:39:49;100594.72;;;8.56;67.43
21594;BME280;10959;51.328;7.322;2023-02-14T00:42:16;100593.88;;;8.53;67.62
21594;BME280;10959;51.328;7.322;2023-02-14T00:44:44;100588.59;;;8.46;67.31
21594;BME280;10959;51.328;7.322;2023-02-14T00:47:10;100590.38;;;8.41;67.59
21594;BME280;10959;51.328;7.322;2023-02-14T00:49:37;100591.31;;;8.37;67.67
21594;BME280;10959;51.328;7.322;2023-02-14T00:52:03;100591.34;;;8.36;67.59
21594;BME280;10959;51.328;7.322;2023-02-14T00:54:30;100596.78;;;8.29;67.91
21594;BME280;10959;51.328;7.322;2023-02-14T00:56:56;100593.25;;;8.24;67.94
21594;BME280;10959;51.328;7.322;2023-02-14T00:59:23;100595.97;;;8.23;67.54
21594;BME280;10959;51.328;7.322;2023-02-14T01:01:51;100598.66;;;8.23;67.69
21594;BME280;10959;51.328;7.322;2023-02-14T01:04:17;100597.78;;;8.21;68.29
21594;BME280;10959;51.328;7.322;2023-02-14T01:06:44;100604.03;;;8.21;68.08
21594;BME280;10959;51.328;7.322;2023-02-14T01:09:10;100598.72;;;8.18;68.55
21594;BME280;10959;51.328;7.322;2023-02-14T01:11:37;100606.75;;;8.20;68.27
21594;BME280;10959;51.328;7.322;2023-02-14T01:14:04;100608.59;;;8.15;68.57
21594;BME280;10959;51.328;7.322;2023-02-14T01:16:30;100603.25;;;8.11;68.19
21594;BME280;10959;51.328;7.322;2023-02-14T01:18:59;100605.06;;;8.09;68.17
21594;BME280;10959;51.328;7.322;2023-02-14T01:21:28;100602.34;;;8.12;68.80
21594;BME280;10959;51.328;7.322;2023-02-14T01:23:58;100588.94;;;8.12;68.60
21594;BME280;10959;51.328;7.322;2023-02-14T01:26:26;100597.81;;;8.18;68.47
21594;BME280;10959;51.328;7.322;2023-02-14T01:28:53;100594.28;;;8.12;68.76
21594;BME280;10959;51.328;7.322;2023-02-14T01:31:22;100588.97;;;8.09;68.80
21594;BME280;10959;51.328;7.322;2023-02-14T01:33:52;100589.91;;;8.05;68.43
21594;BME280;10959;51.328;7.322;2023-02-14T01:36:21;100597.97;;;8.02;68.24
21594;BME280;10959;51.328;7.322;2023-02-14T01:38:50;100590.84;;;8.01;68.58
21594;BME280;10959;51.328;7.322;2023-02-14T01:41:18;100591.75;;;7.97;68.54
21594;BME280;10959;51.328;7.322;2023-02-14T01:43:52;100589.19;;;7.88;68.43
21594;BME280;10959;51.328;7.322;2023-02-14T01:46:20;100596.34;;;7.89;68.88
21594;BME280;10959;51.328;7.322;2023-02-14T01:48:48;100589.22;;;7.85;68.40
21594;BME280;10959;51.328;7.322;2023-02-14T01:51:15;100587.47;;;7.81;69.04
21594;BME280;10959;51.328;7.322;2023-02-14T01:53:46;100582.16;;;7.74;68.79
21594;BME280;10959;51.328;7.322;2023-02-14T01:56:17;100577.72;;;7.72;69.14
21594;BME280;10959;51.328;7.322;2023-02-14T01:58:45;100580.44;;;7.70;68.87
21594;BME280;10959;51.328;7.322;2023-02-14T02:01:16;100582.22;;;7.68;69.11
21594;BME280;10959;51.328;7.322;2023-02-14T02:03:46;100585.81;;;7.64;69.56
21594;BME280;10959;51.328;7.322;2023-02-14T02:06:17;100583.13;;;7.64;69.27
21594;BME280;10959;51.328;7.322;2023-02-14T02:08:53;100579.66;;;7.54;69.74
21594;BME280;10959;51.328;7.322;2023-02-14T02:11:24;100576.03;;;7.63;70.29
21594;BME280;10959;51.328;7.322;2023-02-14T02:13:50;100582.28;;;7.62;69.87
21594;BME280;10959;51.328;7.322;2023-02-14T02:16:29;100577.03;;;7.48;70.10
21594;BME280;10959;51.328;7.322;2023-02-14T02:19:11;100573.50;;;7.44;70.13
21594;BME280;10959;51.328;7.322;2023-02-14T02:22:00;100577.16;;;7.31;70.37
21594;BME280;10959;51.328;7.322;2023-02-14T02:24:48;100576.31;;;7.26;70.34
21594;BME280;10959;51.328;7.322;2023-02-14T02:30:35;100561.19;;;7.16;71.63
21594;BME280;10959;51.328;7.322;2023-02-14T02:36:12;100552.13;;;7.35;71.39
21594;BME280;10959;51.328;7.322;2023-02-14T02:39:01;100551.22;;;7.38;71.25
21594;BME280;10959;51.328;7.322;2023-02-14T02:41:35;100546.56;;;7.57;70.93
21594;BME280;10959;51.328;7.322;2023-02-14T02:44:11;100543.88;;;7.57;70.96
21594;BME280;10959;51.328;7.322;2023-02-14T02:46:45;100549.22;;;7.60;71.14
21594;BME280;10959;51.328;7.322;2023-02-14T02:49:23;100553.78;;;7.52;71.67
21594;BME280;10959;51.328;7.322;2023-02-14T02:52:14;100546.63;;;7.51;71.73
21594;BME280;10959;51.328;7.322;2023-02-14T02:55:05;100544.88;;;7.47;72.53
21594;BME280;10959;51.328;7.322;2023-02-14T02:57:38;100542.97;;;7.61;72.36
21594;BME280;10959;51.328;7.322;2023-02-14T03:00:09;100541.16;;;7.65;72.31
21594;BME280;10959;51.328;7.322;2023-02-14T03:02:39;100535.75;;;7.69;71.68
21594;BME280;10959;51.328;7.322;2023-02-14T03:05:21;100541.03;;;7.75;71.67
21594;BME280;10959;51.328;7.322;2023-02-14T03:07:49;100541.00;;;7.78;71.22
21594;BME280;10959;51.328;7.322;2023-02-14T03:10:18;100539.13;;;7.87;71.32
21594;BME280;10959;51.328;7.322;2023-02-14T03:13:08;100542.88;;;7.67;71.10
21594;BME280;10959;51.328;7.322;2023-02-14T03:15:51;100549.09;;;7.72;71.02
21594;BME280;10959;51.328;7.322;2023-02-14T03:18:31;100549.06;;;7.75;70.70
21594;BME280;10959;51.328;7.322;2023-02-14T03:21:24;100549.97;;;7.74;70.97
21594;BME280;10959;51.328;7.322;2023-02-14T03:23:57;100541.03;;;7.75;71.25
21594;BME280;10959;51.328;7.322;2023-02-14T03:26:34;100548.22;;;7.73;71.56
21594;BME280;10959;51.328;7.322;2023-02-14T03:29:11;100542.84;;;7.75;71.24
21594;BME280;10959;51.328;7.322;2023-02-14T03:31:45;100542.81;;;7.76;71.33
21594;BME280;10959;51.328;7.322;2023-02-14T03:34:22;100542.78;;;7.79;71.41
21594;BME280;10959;51.328;7.322;2023-02-14T03:36:54;100539.19;;;7.81;71.55
21594;BME280;10959;51.328;7.322;2023-02-14T03:39:27;100535.63;;;7.82;71.12
21594;BME280;10959;51.328;7.322;2023-02-14T03:41:59;100537.41;;;7.79;71.72
21594;BME280;10959;51.328;7.322;2023-02-14T03:44:29;100548.00;;;7.95;71.48
21594;BME280;10959;51.328;7.322;2023-02-14T03:47:01;100540.84;;;7.94;71.12
21594;BME280;10959;51.328;7.322;2023-02-14T03:49:32;100538.97;;;8.02;71.02
21594;BME280;10959;51.328;7.322;2023-02-14T03:51:59;100532.66;;;8.06;70.84
21594;BME280;10959;51.328;7.322;2023-02-14T03:54:30;100538.06;;;8.03;70.20
21594;BME280;10959;51.328;7.322;2023-02-14T03:57:02;100538.09;;;7.99;71.12
21594;BME280;10959;51.328;7.322;2023-02-14T03:59:30;100535.41;;;8.00;71.00
21594;BME280;10959;51.328;7.322;2023-02-14T04:02:01;100533.66;;;7.99;70.70
21594;BME280;10959;51.328;7.322;2023-02-14T04:04:32;100529.09;;;8.04;70.90
21594;BME280;10959;51.328;7.322;2023-02-14T04:07:07;100521.25;;;7.89;71.04
21594;BME280;10959;51.328;7.322;2023-02-14T04:09:35;100524.03;;;7.78;71.99
21594;BME280;10959;51.328;7.322;2023-02-14T04:12:02;100524.88;;;7.80;71.80
21594;BME280;10959;51.328;7.322;2023-02-14T04:14:29;100519.41;;;7.91;71.29
21594;BME280;10959;51.328;7.322;2023-02-14T04:16:55;100527.38;;;7.99;71.20
21594;BME280;10959;51.328;7.322;2023-02-14T04:19:40;100522.97;;;7.93;71.33
21594;BME280;10959;51.328;7.322;2023-02-14T04:22:06;100525.63;;;7.98;70.89
21594;BME280;10959;51.328;7.322;2023-02-14T04:24:33;100522.91;;;7.99;70.58
21594;BME280;10959;51.328;7.322;2023-02-14T04:27:01;100532.72;;;8.00;70.50
21594;BME280;10959;51.328;7.322;2023-02-14T04:29:37;100526.50;;;7.98;70.97
21594;BME280;10959;51.328;7.322;2023-02-14T04:32:04;100522.97;;;7.93;71.05
21594;BME280;10959;51.328;7.322;2023-02-14T04:34:31;100530.06;;;7.97;70.79
21594;BME280;10959;51.328;7.322;2023-02-14T04:36:57;100521.13;;;7.98;71.02
21594;BME280;10959;51.328;7.322;2023-02-14T04:39:24;100522.91;;;7.99;70.93
21594;BME280;10959;51.328;7.322;2023-02-14T04:41:51;100521.16;;;7.95;70.91
21594;BME280;10959;51.328;7.322;2023-02-14T04:44:19;100515.84;;;7.92;70.91
21594;BME280;10959;51.328;7.322;2023-02-14T04:46:45;100518.53;;;7.92;70.72
21594;BME280;10959;51.328;7.322;2023-02-14T04:55:55;100507.06;;;7.74;71.24
21594;BME280;10959;51.328;7.322;2023-02-14T04:58:22;100513.31;;;7.78;71.29
21594;BME280;10959;51.328;7.322;2023-02-14T05:00:50;100512.44;;;7.74;70.90
21594;BME280;10959;51.328;7.322;2023-02-14T05:03:16;100497.19;;;7.79;71.19
21594;BME280;10959;51.328;7.322;2023-02-14T05:05:42;100499.88;;;7.79;70.95
21594;BME280;10959;51.328;7.322;2023-02-14T05:08:09;100496.34;;;7.77;71.40
21594;BME280;10959;51.328;7.322;2023-02-14T05:10:35;100501.63;;;7.84;71.41
21594;BME280;10959;51.328;7.322;2023-02-14T05:13:02;100489.09;;;7.83;70.95
21594;BME280;10959;51.328;7.322;2023-02-14T05:15:28;100485.56;;;7.81;71.06
21594;BME280;10959;51.328;7.322;2023-02-14T05:17:56;100481.13;;;7.76;71.39
21594;BME280;10959;51.328;7.322;2023-02-14T05:20:26;100483.88;;;7.73;71.37
21594;BME280;10959;51.328;7.322;2023-02-14T05:22:53;100474.94;;;7.71;71.32
21594;BME280;10959;51.328;7.322;2023-02-14T05:25:20;100466.09;;;7.60;71.52
21594;BME280;10959;51.328;7.322;2023-02-14T05:27:47;100468.75;;;7.65;71.85
21594;BME280;10959;51.328;7.322;2023-02-14T05:30:14;100472.25;;;7.70;71.56
21594;BME280;10959;51.328;7.322;2023-02-14T05:32:40;100466.03;;;7.69;71.68
21594;BME280;10959;51.328;7.322;2023-02-14T05:35:09;100462.53;;;7.61;71.76
21594;BME280;10959;51.328;7.322;2023-02-14T05:37:35;100460.75;;;7.63;71.86
21594;BME280;10959;51.328;7.322;2023-02-14T05:40:02;100465.13;;;7.70;71.86
21594;BME280;10959;51.328;7.322;2023-02-14T05:42:29;100464.25;;;7.68;72.08
21594;BME280;10959;51.328;7.322;2023-02-14T05:44:55;100458.00;;;7.68;72.05
21594;BME280;10959;51.328;7.322;2023-02-14T05:47:21;100459.75;;;7.72;72.10
21594;BME280;10959;51.328;7.322;2023-02-14T05:49:48;100465.94;;;7.75;71.64
21594;BME280;10959;51.328;7.322;2023-02-14T05:52:16;100467.78;;;7.73;71.50
21594;BME280;10959;51.328;7.322;2023-02-14T05:54:42;100459.72;;;7.73;71.67
21594;BME280;10959;51.328;7.322;2023-02-14T05:57:09;100453.47;;;7.71;71.90
21594;BME280;10959;51.328;7.322;2023-02-14T05:59:35;100464.16;;;7.74;71.30
21594;BME280;10959;51.328;7.322;2023-02-14T06:02:01;100459.72;;;7.73;71.66
21594;BME280;10959;51.328;7.322;2023-02-14T06:04:28;100461.53;;;7.71;71.45
21594;BME280;10959;51.328;7.322;2023-02-14T06:06:55;100469.59;;;7.68;71.68
21594;BME280;10959;51.328;7.322;2023-02-14T06:09:22;100475.00;;;7.65;71.60
21594;BME280;10959;51.328;7.322;2023-02-14T06:11:49;100465.16;;;7.66;72.04
21594;BME280;10959;51.328;7.322;2023-02-14T06:14:16;100475.00;;;7.65;71.77
21594;BME280;10959;51.328;7.322;2023-02-14T06:16:42;100480.31;;;7.68;71.28
21594;BME280;10959;51.328;7.322;2023-02-14T06:19:08;100483.09;;;7.62;71.39
21594;BME280;10959;51.328;7.322;2023-02-14T06:21:35;100482.22;;;7.57;71.76
21594;BME280;10959;51.328;7.322;2023-02-14T06:24:02;100488.47;;;7.59;72.10
21594;BME280;10959;51.328;7.322;2023-02-14T06:26:30;100483.13;;;7.59;71.47
21594;BME280;10959;51.328;7.322;2023-02-14T06:28:58;100483.16;;;7.53;71.66
21594;BME280;10959;51.328;7.322;2023-02-14T06:31:24;100485.84;;;7.53;71.82
21594;BME280;10959;51.328;7.322;2023-02-14T06:33:51;100492.16;;;7.50;71.72
21594;BME280;10959;51.328;7.322;2023-02-14T06:36:18;100483.22;;;7.48;71.92
21594;BME280;10959;51.328;7.322;2023-02-14T06:38:44;100493.06;;;7.48;71.19
21594;BME280;10959;51.328;7.322;2023-02-14T06:41:12;100494.84;;;7.46;71.31
21594;BME280;10959;51.328;7.322;2023-02-14T06:43:43;100487.78;;;7.38;71.60
21594;BME280;10959;51.328;7.322;2023-02-14T06:46:10;100490.47;;;7.37;71.43
21594;BME280;10959;51.328;7.322;2023-02-14T06:48:36;100505.69;;;7.33;71.54
21594;BME280;10959;51.328;7.322;2023-02-14T06:51:03;100499.47;;;7.30;71.52
21594;BME280;10959;51.328;7.322;2023-02-14T06:53:29;100505.75;;;7.27;71.89
21594;BME280;10959;51.328;7.322;2023-02-14T06:55:56;100495.03;;;7.27;71.33
21594;BME280;10959;51.328;7.322;2023-02-14T06:58:22;100497.69;;;7.29;71.52
21594;BME280;10959;51.328;7.322;2023-02-14T07:00:50;100496.81;;;7.28;71.22
21594;BME280;10959;51.328;7.322;2023-02-14T07:03:17;100495.09;;;7.21;71.80
21594;BME280;10959;51.328;7.322;2023-02-14T07:05:43;100495.09;;;7.21;71.36
21594;BME280;10959;51.328;7.322;2023-02-14T07:08:10;100495.09;;;7.21;71.46
21594;BME280;10959;51.328;7.322;2023-02-14T07:10:36;100496.91;;;7.19;71.47
21594;BME280;10959;51.328;7.322;2023-02-14T07:13:03;100497.75;;;7.22;71.50
21594;BME280;10959;51.328;7.322;2023-02-14T07:15:29;100499.50;;;7.25;71.65
21594;BME280;10959;51.328;7.322;2023-02-14T07:17:57;100497.69;;;7.27;71.40
21594;BME280;10959;51.328;7.322;2023-02-14T07:20:24;100502.16;;;7.30;71.60
21594;BME280;10959;51.328;7.322;2023-02-14T07:22:51;100512.84;;;7.31;71.54
21594;BME280;10959;51.328;7.322;2023-02-14T07:25:19;100507.47;;;7.37;71.30
21594;BME280;10959;51.328;7.322;2023-02-14T07:27:45;100502.97;;;7.39;71.40
21594;BME280;10959;51.328;7.322;2023-02-14T07:30:12;100512.72;;;7.47;71.53
21594;BME280;10959;51.328;7.322;2023-02-14T07:32:39;100523.38;;;7.53;71.05
21594;BME280;10959;51.328;7.322;2023-02-14T07:35:08;100516.13;;;7.64;70.81
21594;BME280;10959;51.328;7.322;2023-02-14T07:37:34;100518.75;;;7.72;71.07
21594;BME280;10959;51.328;7.322;2023-02-14T07:40:02;100512.31;;;7.87;70.83
21594;BME280;10959;51.328;7.322;2023-02-14T07:42:29;100519.28;;;8.03;70.40
21594;BME280;10959;51.328;7.322;2023-02-14T07:44:55;100510.22;;;8.13;70.43
21594;BME280;10959;51.328;7.322;2023-02-14T07:47:22;100509.13;;;8.28;70.40
21594;BME280;10959;51.328;7.322;2023-02-14T07:49:49;100510.75;;;8.42;69.56
21594;BME280;10959;51.328;7.322;2023-02-14T07:52:17;100504.31;;;8.57;69.89
21594;BME280;10959;51.328;7.322;2023-02-14T07:54:43;100506.88;;;8.66;69.14
21594;BME280;10959;51.328;7.322;2023-02-14T07:57:10;100511.22;;;8.76;67.95
21594;BME280;10959;51.328;7.322;2023-02-14T07:59:36;100511.06;;;8.86;68.28
21594;BME280;10959;51.328;7.322;2023-02-14T08:02:03;100503.72;;;8.97;67.88
21594;BME280;10959;51.328;7.322;2023-02-14T08:04:29;100496.44;;;9.05;67.81
21594;BME280;10959;51.328;7.322;2023-02-14T08:06:56;100498.97;;;9.16;67.49
21594;BME280;10959;51.328;7.322;2023-02-14T08:09:24;100506.72;;;9.33;67.50
21594;BME280;10959;51.328;7.322;2023-02-14T08:11:50;100503.78;;;9.47;68.35
21594;BME280;10959;51.328;7.322;2023-02-14T08:14:34;100497.13;;;9.68;67.81
21594;BME280;10959;51.328;7.322;2023-02-14T08:17:01;100499.41;;;9.90;67.68
21594;BME280;10959;51.328;7.322;2023-02-14T08:19:28;100498.22;;;10.06;66.99
21594;BME280;10959;51.328;7.322;2023-02-14T08:21:54;100501.56;;;10.17;65.84
21594;BME280;10959;51.328;7.322;2023-02-14T08:24:21;100499.78;;;10.16;64.70
21594;BME280;10959;51.328;7.322;2023-02-14T08:26:49;100506.94;;;10.17;65.51
21594;BME280;10959;51.328;7.322;2023-02-14T08:29:16;100503.03;;;10.34;65.99
21594;BME280;10959;51.328;7.322;2023-02-14T08:31:43;100502.78;;;10.46;65.35
21594;BME280;10959;51.328;7.322;2023-02-14T08:34:11;100501.66;;;10.57;64.38
21594;BME280;10959;51.328;7.322;2023-02-14T08:36:38;100509.31;;;10.75;65.07
21594;BME280;10959;51.328;7.322;2023-02-14T08:39:05;100509.78;;;10.94;64.36
21594;BME280;10959;51.328;7.322;2023-02-14T08:41:32;100511.19;;;11.11;64.63
21594;BME280;10959;51.328;7.322;2023-02-14T08:44:00;100516.25;;;11.23;64.29
21594;BME280;10959;51.328;7.322;2023-02-14T08:46:27;100513.31;;;11.34;64.20
21594;BME280;10959;51.328;7.322;2023-02-14T08:48:54;100511.06;;;11.51;63.81
21594;BME280;10959;51.328;7.322;2023-02-14T08:51:21;100506.22;;;11.64;63.28
21594;BME280;10959;51.328;7.322;2023-02-14T08:53:48;100503.38;;;11.69;62.59
21594;BME280;10959;51.328;7.322;2023-02-14T08:56:16;100518.44;;;11.79;62.06
21594;BME280;10959;51.328;7.322;2023-02-14T08:58:44;100519.25;;;11.81;62.42
21594;BME280;10959;51.328;7.322;2023-02-14T09:01:14;100515.38;;;11.91;62.41
21594;BME280;10959;51.328;7.322;2023-02-14T09:03:42;100516.59;;;12.14;62.03
21594;BME280;10959;51.328;7.322;2023-02-14T09:06:11;100524.28;;;12.28;62.07
21594;BME280;10959;51.328;7.322;2023-02-14T09:08:38;100524.81;;;12.41;62.11
21594;BME280;10959;51.328;7.322;2023-02-14T09:11:09;100511.78;;;12.55;61.56
21594;BME280;10959;51.328;7.322;2023-02-14T09:13:35;100507.59;;;12.75;61.30
21594;BME280;10959;51.328;7.322;2023-02-14T09:16:02;100510.84;;;12.86;60.85
21594;BME280;10959;51.328;7.322;2023-02-14T09:18:31;100509.16;;;12.82;59.94
21594;BME280;10959;51.328;7.322;2023-02-14T09:20:57;100503.34;;;12.94;60.09
21594;BME280;10959;51.328;7.322;2023-02-14T09:23:24;100502.03;;;13.08;60.19
21594;BME280;10959;51.328;7.322;2023-02-14T09:25:50;100491.66;;;13.22;59.33
21594;BME280;10959;51.328;7.322;2023-02-14T09:28:17;100485.88;;;13.35;59.15
21594;BME280;10959;51.328;7.322;2023-02-14T09:30:43;100485.41;;;13.47;58.86
21594;BME280;10959;51.328;7.322;2023-02-14T09:33:10;100485.00;;;13.59;58.66
21594;BME280;10959;51.328;7.322;2023-02-14T09:35:38;100488.84;;;13.79;58.27
21594;BME280;10959;51.328;7.322;2023-02-14T09:38:22;100489.81;;;13.76;57.84
21594;BME280;10959;51.328;7.322;2023-02-14T09:40:49;100480.47;;;13.85;57.79
21594;BME280;10959;51.328;7.322;2023-02-14T09:43:20;100475.75;;;13.92;57.64
21594;BME280;10959;51.328;7.322;2023-02-14T09:45:51;100485.34;;;14.00;56.94
21594;BME280;10959;51.328;7.322;2023-02-14T09:48:23;100477.09;;;14.04;57.60
21594;BME280;10959;51.328;7.322;2023-02-14T09:50:53;100479.25;;;14.19;57.38
21594;BME280;10959;51.328;7.322;2023-02-14T09:53:25;100471.69;;;14.27;56.25
21594;BME280;10959;51.328;7.322;2023-02-14T09:55:56;100470.63;;;14.08;55.54
21594;BME280;10959;51.328;7.322;2023-02-14T09:58:30;100475.22;;;14.06;55.31
21594;BME280;10959;51.328;7.322;2023-02-14T10:01:02;100470.16;;;13.96;55.49
21594;BME280;10959;51.328;7.322;2023-02-14T10:03:37;100474.59;;;13.97;54.57
21594;BME280;10959;51.328;7.322;2023-02-14T10:06:14;100467.31;;;13.99;54.85
21594;BME280;10959;51.328;7.322;2023-02-14T10:08:51;100463.00;;;14.19;55.92
21594;BME280;10959;51.328;7.322;2023-02-14T10:11:22;100457.38;;;14.47;55.58
21594;BME280;10959;51.328;7.322;2023-02-14T10:13:51;100463.13;;;14.63;55.13
21594;BME280;10959;51.328;7.322;2023-02-14T10:16:23;100461.44;;;14.59;53.69
21594;BME280;10959;51.328;7.322;2023-02-14T10:18:53;100464.66;;;14.71;54.29
21594;BME280;10959;51.328;7.322;2023-02-14T10:21:27;100458.69;;;14.83;54.43
21594;BME280;10959;51.328;7.322;2023-02-14T10:24:01;100451.84;;;14.96;53.94
21594;BME280;10959;51.328;7.322;2023-02-14T10:26:32;100456.22;;;15.00;53.57
21594;BME280;10959;51.328;7.322;2023-02-14T10:29:02;100458.25;;;15.16;54.27
21594;BME280;10959;51.328;7.322;2023-02-14T10:31:34;100459.31;;;15.12;52.14
21594;BME280;10959;51.328;7.322;2023-02-14T10:34:07;100456.50;;;15.15;51.20
21594;BME280;10959;51.328;7.322;2023-02-14T10:36:47;100451.38;;;15.07;52.54
21594;BME280;10959;51.328;7.322;2023-02-14T10:39:49;100454.56;;;14.96;53.51
21594;BME280;10959;51.328;7.322;2023-02-14T10:42:24;100455.28;;;15.22;52.39
21594;BME280;10959;51.328;7.322;2023-02-14T10:45:03;100452.88;;;15.36;52.01
21594;BME280;10959;51.328;7.322;2023-02-14T10:47:38;100449.22;;;15.37;51.21
21594;BME280;10959;51.328;7.322;2023-02-14T10:50:15;100445.41;;;15.42;50.98
21594;BME280;10959;51.328;7.322;2023-02-14T10:52:48;100451.41;;;15.70;52.18
21594;BME280;10959;51.328;7.322;2023-02-14T10:55:19;100448.97;;;15.85;51.22
21594;BME280;10959;51.328;7.322;2023-02-14T10:57:50;100446.22;;;16.05;51.43
21594;BME280;10959;51.328;7.322;2023-02-14T11:00:21;100445.22;;;16.27;51.44
21594;BME280;10959;51.328;7.322;2023-02-14T11:02:51;100436.78;;;16.52;50.51
21594;BME280;10959;51.328;7.322;2023-02-14T11:05:25;100432.59;;;16.64;51.38
21594;BME280;10959;51.328;7.322;2023-02-14T11:07:54;100436.78;;;16.71;50.20
21594;BME280;10959;51.328;7.322;2023-02-14T11:10:24;100427.88;;;16.87;50.32
21594;BME280;10959;51.328;7.322;2023-02-14T11:12:51;100422.41;;;17.06;50.02
21594;BME280;10959;51.328;7.322;2023-02-14T11:15:22;100417.88;;;17.24;50.28
21594;BME280;10959;51.328;7.322;2023-02-14T11:18:07;100421.88;;;17.34;50.14
21594;BME280;10959;51.328;7.322;2023-02-14T11:20:34;100423.47;;;17.73;49.41
21594;BME280;10959;51.328;7.322;2023-02-14T11:23:17;100422.75;;;17.70;49.27
21594;BME280;10959;51.328;7.322;2023-02-14T11:25:49;100423.31;;;17.94;48.15
21594;BME280;10959;51.328;7.322;2023-02-14T11:28:17;100416.03;;;18.10;48.10
21594;BME280;10959;51.328;7.322;2023-02-14T11:30:46;100416.97;;;18.27;47.25
21594;BME280;10959;51.328;7.322;2023-02-14T11:33:25;100406.41;;;18.21;47.77
21594;BME280;10959;51.328;7.322;2023-02-14T11:35:55;100412.91;;;18.34;46.75
21594;BME280;10959;51.328;7.322;2023-02-14T11:38:27;100405.19;;;18.42;47.32
21594;BME280;10959;51.328;7.322;2023-02-14T11:40:56;100400.09;;;18.68;46.82
21594;BME280;10959;51.328;7.322;2023-02-14T11:43:32;100396.91;;;18.60;46.60
21594;BME280;10959;51.328;7.322;2023-02-14T11:46:05;100397.81;;;18.76;46.38
21594;BME280;10959;51.328;7.322;2023-02-14T11:48:32;100397.44;;;18.98;46.60
21594;BME280;10959;51.328;7.322;2023-02-14T11:51:02;100388.81;;;19.06;45.69
21594;BME280;10959;51.328;7.322;2023-02-14T11:53:38;100385.66;;;18.98;45.17
21594;BME280;10959;51.328;7.322;2023-02-14T11:56:09;100388.25;;;19.15;45.67
21594;BME280;10959;51.328;7.322;2023-02-14T11:58:38;100383.78;;;19.29;45.65
21594;BME280;10959;51.328;7.322;2023-02-14T12:01:08;100380.63;;;19.37;45.74
21594;BME280;10959;51.328;7.322;2023-02-14T12:03:38;100375.47;;;19.46;45.72
21594;BME280;10959;51.328;7.322;2023-02-14T12:06:09;100377.22;;;19.62;45.63
21594;BME280;10959;51.328;7.322;2023-02-14T12:08:37;100377.84;;;19.67;45.62
21594;BME280;10959;51.328;7.322;2023-02-14T12:11:18;100369.63;;;19.52;44.58
21594;BME280;10959;51.328;7.322;2023-02-14T12:13:51;100374.34;;;19.65;45.23
21594;BME280;10959;51.328;7.322;2023-02-14T12:16:22;100363.78;;;19.73;44.79
21594;BME280;10959;51.328;7.322;2023-02-14T12:18:55;100351.88;;;19.74;44.53
21594;BME280;10959;51.328;7.322;2023-02-14T12:21:36;100351.47;;;19.66;45.26
21594;BME280;10959;51.328;7.322;2023-02-14T12:24:15;100349.53;;;19.68;45.04
21594;BME280;10959;51.328;7.322;2023-02-14T12:26:45;100339.81;;;19.93;45.34
21594;BME280;10959;51.328;7.322;2023-02-14T12:29:19;100339.59;;;19.96;44.73
21594;BME280;10959;51.328;7.322;2023-02-14T12:31:48;100338.81;;;20.08;44.00
21594;BME280;10959;51.328;7.322;2023-02-14T12:34:17;100341.06;;;20.01;43.46
21594;BME280;10959;51.328;7.322;2023-02-14T12:36:58;100335.81;;;19.84;43.47
21594;BME280;10959;51.328;7.322;2023-02-14T12:39:34;100340.00;;;19.90;43.64
21594;BME280;10959;51.328;7.322;2023-02-14T12:42:10;100328.00;;;19.92;43.70
21594;BME280;10959;51.328;7.322;2023-02-14T12:44:46;100330.53;;;19.95;44.22
21594;BME280;10959;51.328;7.322;2023-02-14T12:47:18;100321.06;;;20.01;43.64
21594;BME280;10959;51.328;7.322;2023-02-14T12:50:05;100323.59;;;19.90;44.50
21594;BME280;10959;51.328;7.322;2023-02-14T12:52:50;100319.69;;;19.94;44.18
21594;BME280;10959;51.328;7.322;2023-02-14T12:55:33;100314.22;;;19.94;44.21
21594;BME280;10959;51.328;7.322;2023-02-14T12:58:11;100312.06;;;19.99;42.49
21594;BME280;10959;51.328;7.322;2023-02-14T13:00:51;100305.13;;;19.93;43.38
21594;BME280;10959;51.328;7.322;2023-02-14T13:06:28;100306.59;;;19.99;44.02
21594;BME280;10959;51.328;7.322;2023-02-14T13:09:08;100301.13;;;19.99;43.79
21594;BME280;10959;51.328;7.322;2023-02-14T13:11:49;100296.88;;;19.95;42.24
21594;BME280;10959;51.328;7.322;2023-02-14T13:17:19;100301.34;;;19.81;41.24
21594;BME280;10959;51.328;7.322;2023-02-14T13:19:54;100295.28;;;19.76;43.01
21594;BME280;10959;51.328;7.322;2023-02-14T13:22:24;100288.63;;;19.80;42.40
21594;BME280;10959;51.328;7.322;2023-02-14T13:24:56;100288.25;;;19.72;42.64
21594;BME280;10959;51.328;7.322;2023-02-14T13:27:30;100281.22;;;19.68;43.06
21594;BME280;10959;51.328;7.322;2023-02-14T13:30:00;100288.63;;;19.66;41.91